»·PEaware :: N143VT KPHX-KSNA

N143VT :: KPHX-KSNA

FLIGHT INFORMATION

Flight Status: Arrived
Operator: Privately registered:
United States
More flights under this callsign
Pilot: Anonymous 16492 (16492)
Aircraft: ECLIPSE 500
(EA50)
More flights by this aircraft type
Origin: KPHX Phoenix Sky Harbor Intl
United States
Destination: KSNA John Wayne-Orange Co
United States
More flights between these airports :: More routes between these airports
Route: +KPHX IZZZO6 HRRBR EMLLD DSNEE3 KSNA
File this flight plan on PilotEdge
Remarks:
Altitude:
(Current/Filed)
32,000ft
Speed:
(Current/Filed)
300kts
Departed: 15-May-18 06:12 PM
Arrived: 15-May-18 07:27 PM
Distance/Time
Traveled:
293nm/1:15
Distance/Time
To Go:
Arrived

Flight Plot

Page will automatically refresh every two minutes.

Flight plan parsing failed; only flown route is shown


Map Options




Map Legend


Flown Route
Filed Route
Departure Airport
Arrival Airport
Navaid (VOR, NDB)
Fix

Horizontal Profiles

Position Reports

Time Latitude Longitude Heading Altitude Ground
Speed
15-May-18 17:54 33.426802 -112.024087 15 1137ft 0kts
15-May-18 17:55 33.426802 -112.024087 15 1137ft 0kts
15-May-18 17:56 33.426802 -112.024087 15 1137ft 0kts
15-May-18 17:57 33.426802 -112.024087 15 1137ft 0kts
15-May-18 17:58 33.426802 -112.024087 15 1137ft 0kts
15-May-18 17:59 33.426802 -112.024087 15 1137ft 0kts
15-May-18 18:00 33.426802 -112.024087 15 1137ft 0kts
15-May-18 18:01 33.426802 -112.024087 15 1137ft 0kts
15-May-18 18:02 33.426802 -112.024087 15 1137ft 0kts
15-May-18 18:03 33.426885 -112.024080 350 1137ft 0kts
15-May-18 18:04 33.426885 -112.024080 350 1137ft 0kts
15-May-18 18:05 33.426886 -112.024080 350 1137ft 0kts
15-May-18 18:06 33.427763 -112.021990 88 1137ft 20kts
15-May-18 18:07 33.427757 -112.015196 88 1137ft 18kts
15-May-18 18:08 33.427760 -112.009900 89 1137ft 12kts
15-May-18 18:09 33.427765 -112.006002 90 1137ft 11kts
15-May-18 18:10 33.427954 -112.005305 17 1137ft 0kts
15-May-18 18:11 33.428696 -112.005206 339 1137ft 13kts
15-May-18 18:12 33.428599 -112.035974 270 1688ft 149kts
15-May-18 18:13 33.431871 -112.093986 275 3609ft 177kts
15-May-18 18:14 33.435025 -112.149648 272 6280ft 171kts
15-May-18 18:15 33.437525 -112.206936 271 8677ft 176kts
15-May-18 18:16 33.439723 -112.265985 271 10901ft 181kts
15-May-18 18:17 33.441775 -112.326471 270 12995ft 184kts
15-May-18 18:18 33.443742 -112.387705 270 14979ft 185kts
15-May-18 18:19 33.445652 -112.449425 270 16821ft 187kts
15-May-18 18:20 33.447523 -112.511514 269 18530ft 188kts
15-May-18 18:21 33.449334 -112.572832 269 20083ft 190kts
15-May-18 18:22 33.450556 -112.634367 268 21521ft 191kts
15-May-18 18:23 33.451437 -112.697941 268 22927ft 193kts
15-May-18 18:24 33.452281 -112.762240 268 24253ft 194kts
15-May-18 18:25 33.458479 -112.826959 276 25475ft 199kts
15-May-18 18:26 33.470373 -112.892250 276 26584ft 203kts
15-May-18 18:27 33.482592 -112.958469 275 27617ft 206kts
15-May-18 18:28 33.495116 -113.026105 275 28579ft 210kts
15-May-18 18:29 33.507787 -113.094616 275 29504ft 212kts
15-May-18 18:30 33.520543 -113.163685 275 30374ft 213kts
15-May-18 18:31 33.533341 -113.233113 275 31184ft 214kts
15-May-18 18:32 33.546217 -113.303163 275 31937ft 216kts
15-May-18 18:33 33.559771 -113.377417 276 32007ft 242kts
15-May-18 18:34 33.574807 -113.459765 276 32005ft 263kts
15-May-18 18:35 33.591165 -113.548396 277 32001ft 280kts
15-May-18 18:36 33.608486 -113.641368 277 31986ft 292kts
15-May-18 18:37 33.626310 -113.737370 277 31982ft 302kts
15-May-18 18:38 33.644693 -113.836830 277 31975ft 309kts
15-May-18 18:39 33.677249 -113.934591 288 31974ft 320kts
15-May-18 18:40 33.714352 -114.032020 288 31973ft 323kts
15-May-18 18:41 33.751931 -114.130297 287 31972ft 324kts
15-May-18 18:42 33.767556 -114.233260 274 31970ft 309kts
15-May-18 18:43 33.780022 -114.335702 274 31970ft 309kts
15-May-18 18:44 33.792036 -114.438065 273 31968ft 309kts
15-May-18 18:45 33.803854 -114.540447 273 31967ft 310kts
15-May-18 18:46 33.815572 -114.642934 273 31966ft 309kts
15-May-18 18:47 33.827122 -114.744784 273 31977ft 309kts
15-May-18 18:48 33.838699 -114.847572 273 31976ft 309kts
15-May-18 18:49 33.848906 -114.938790 273 31975ft 309kts
15-May-18 18:50 33.860249 -115.040620 273 31974ft 310kts
15-May-18 18:51 33.871645 -115.143707 272 31973ft 312kts
15-May-18 18:52 33.882969 -115.247069 272 31969ft 313kts
15-May-18 18:53 33.894309 -115.351510 273 31349ft 319kts
15-May-18 18:54 33.905303 -115.453364 272 30334ft 308kts
15-May-18 18:55 33.916178 -115.554932 273 29951ft 306kts
15-May-18 18:56 33.926262 -115.654261 270 29957ft 305kts
15-May-18 18:57 33.933255 -115.749705 270 29970ft 305kts
15-May-18 18:58 33.939704 -115.840018 270 29975ft 305kts
15-May-18 18:59 33.946805 -115.941169 270 29865ft 309kts
15-May-18 19:00 33.953860 -116.042837 270 28496ft 299kts
15-May-18 19:01 33.960620 -116.141694 270 27014ft 297kts
15-May-18 19:02 33.960085 -116.237197 260 25551ft 290kts
15-May-18 19:03 33.948821 -116.331741 259 24089ft 285kts
15-May-18 19:04 33.937009 -116.427070 259 23165ft 290kts
15-May-18 19:05 33.925599 -116.519286 259 21657ft 281kts
15-May-18 19:06 33.913826 -116.611492 259 20140ft 277kts
15-May-18 19:07 33.903007 -116.695136 259 18763ft 273kts
15-May-18 19:08 33.892148 -116.784144 260 17289ft 270kts
15-May-18 19:09 33.882952 -116.867338 260 15892ft 266kts
15-May-18 19:10 33.873446 -116.954381 260 14404ft 261kts
15-May-18 19:11 33.864125 -117.039019 260 12921ft 254kts
15-May-18 19:12 33.854586 -117.122350 260 11420ft 247kts
15-May-18 19:13 33.845452 -117.202968 261 9924ft 241kts
15-May-18 19:14 33.836683 -117.281045 261 8427ft 233kts
15-May-18 19:15 33.828185 -117.357231 261 7995ft 233kts
15-May-18 19:16 33.819632 -117.434285 261 7996ft 231kts
15-May-18 19:17 33.800739 -117.506766 267 7597ft 228kts
15-May-18 19:18 33.804030 -117.583541 271 7598ft 230kts
15-May-18 19:19 33.812883 -117.651185 301 7265ft 249kts
15-May-18 19:20 33.846380 -117.710158 301 5531ft 228kts
15-May-18 19:21 33.850657 -117.767972 203 4001ft 204kts
15-May-18 19:22 33.796051 -117.791847 204 3392ft 207kts
15-May-18 19:23 33.754928 -117.817573 210 2555ft 156kts
15-May-18 19:24 33.720957 -117.839647 213 1151ft 127kts
15-May-18 19:25 33.693619 -117.857470 211 378ft 104kts
15-May-18 19:26 33.671846 -117.871293 208 59ft 58kts
15-May-18 19:27 33.669129 -117.871629 130 59ft 2kts
15-May-18 19:28 33.669824 -117.869406 79 59ft 0kts
15-May-18 19:29 33.669825 -117.869407 80 58ft 0kts
15-May-18 19:30 33.669825 -117.869407 80 58ft 0kts
15-May-18 19:31 33.669825 -117.869407 80 58ft 0kts

Navigation Log

Ident Type
Flight plan parsing failed, navigation log unavailable